createdAt,value
2019-05-12T08:21:34.866Z,32.38
2019-05-12T08:22:34.542Z,31.56
2019-05-12T08:23:30.870Z,30.75
2019-05-12T08:24:27.586Z,30.00
2019-05-12T08:25:28.718Z,29.31
2019-05-12T08:26:23.941Z,29.25
2019-05-12T08:27:23.272Z,30.06
2019-05-12T08:28:24.692Z,31.50
2019-05-12T08:29:21.626Z,33.19
2019-05-12T08:30:16.417Z,34.50
2019-05-12T08:31:14.068Z,35.13
2019-05-12T08:32:16.073Z,35.31
2019-05-12T08:33:10.216Z,35.19
2019-05-12T08:34:07.112Z,34.94
2019-05-12T08:35:05.051Z,34.50
2019-05-12T08:36:05.491Z,34.06
2019-05-12T08:37:00.471Z,33.56
2019-05-12T08:37:57.200Z,33.06
2019-05-12T08:38:53.915Z,32.50
2019-05-12T08:39:53.375Z,31.94
2019-05-12T08:40:51.100Z,31.31
2019-05-12T08:41:47.722Z,30.69
2019-05-12T08:42:44.438Z,30.00
2019-05-12T08:43:46.892Z,29.37
2019-05-12T08:44:40.827Z,28.94
2019-05-12T08:45:37.943Z,29.12
2019-05-12T08:46:34.733Z,30.06
2019-05-12T08:47:35.468Z,31.37
2019-05-12T08:48:29.966Z,32.81
2019-05-12T08:49:26.683Z,33.94
2019-05-12T08:50:31.672Z,34.50
2019-05-12T08:51:24.460Z,34.69
2019-05-12T08:52:20.463Z,34.50
2019-05-12T08:53:21.293Z,34.19
2019-05-12T08:54:15.703Z,33.81
2019-05-12T08:55:16.326Z,33.44
2019-05-12T08:56:17.061Z,32.94
2019-05-12T08:57:09.475Z,32.44
2019-05-12T08:58:06.202Z,31.94
2019-05-12T08:59:04.361Z,31.37
2019-05-12T09:00:06.716Z,30.81
2019-05-12T09:00:59.897Z,30.31
2019-05-12T09:02:00.517Z,29.81
2019-05-12T09:02:55.130Z,29.44
2019-05-12T09:03:53.324Z,29.12
2019-05-12T09:04:51.588Z,28.81
2019-05-12T09:05:48.723Z,28.50
2019-05-12T09:06:45.447Z,28.25
2019-05-12T09:07:43.551Z,28.00
2019-05-12T09:08:44.809Z,27.75
2019-05-12T09:09:39.018Z,27.50
2019-05-12T09:10:35.763Z,27.25
2019-05-12T09:11:33.571Z,27.00
2019-05-12T09:12:30.511Z,26.81
2019-05-12T09:13:27.230Z,26.69
2019-05-12T09:14:24.033Z,26.56
2019-05-12T09:15:20.698Z,26.44
2019-05-12T09:16:17.420Z,26.31
2019-05-12T09:17:14.155Z,26.25
2019-05-12T09:18:10.878Z,26.12
2019-05-12T09:19:10.234Z,26.06
2019-05-12T09:20:08.258Z,25.94
2019-05-12T09:21:04.657Z,25.81
2019-05-12T09:22:06.436Z,25.75
2019-05-12T09:23:00.823Z,25.69
2019-05-12T09:23:58.401Z,25.56
2019-05-12T09:24:58.458Z,25.50
2019-05-12T09:25:57.056Z,25.44
2019-05-12T09:26:53.828Z,25.37
2019-05-12T09:27:50.727Z,25.25
2019-05-12T09:28:50.390Z,25.19
2019-05-12T09:29:45.956Z,25.12
2019-05-12T09:30:47.500Z,25.06
2019-05-12T09:31:41.228Z,25.00
2019-05-12T09:32:39.075Z,24.94
2019-05-12T09:33:36.463Z,24.87
2019-05-12T09:34:33.599Z,24.81
2019-05-12T09:35:35.028Z,24.69
2019-05-12T09:36:28.937Z,24.69
2019-05-12T09:37:25.655Z,24.56
2019-05-12T09:38:24.101Z,24.50
2019-05-12T09:39:20.897Z,24.44
2019-05-12T09:40:20.575Z,24.37
2019-05-12T09:41:16.136Z,24.31
2019-05-12T09:42:14.210Z,24.25
2019-05-12T09:43:13.144Z,24.19
2019-05-12T09:44:09.487Z,24.19
2019-05-12T09:45:10.392Z,24.12
2019-05-12T09:46:04.719Z,24.06
2019-05-12T09:47:01.465Z,24.00
2019-05-12T09:47:58.957Z,23.94
2019-05-12T09:48:56.689Z,23.87
2019-05-12T09:49:53.589Z,23.87
2019-05-12T09:50:51.603Z,23.81
2019-05-12T09:51:48.874Z,23.75
2019-05-12T09:52:45.589Z,23.69
2019-05-12T09:53:50.597Z,23.62
2019-05-12T09:54:41.157Z,23.56
2019-05-12T09:55:37.948Z,23.56
2019-05-12T09:56:34.659Z,23.50
2019-05-12T09:57:34.707Z,23.44
2019-05-12T09:58:29.922Z,23.38
2019-05-12T09:59:26.637Z,23.38
2019-05-12T10:00:23.923Z,23.31
2019-05-12T10:01:20.762Z,23.25
2019-05-12T10:02:20.607Z,23.19
2019-05-12T10:03:18.078Z,23.19
2019-05-12T10:04:16.293Z,23.12
2019-05-12T10:05:14.393Z,23.06
2019-05-12T10:06:16.179Z,23.06
2019-05-12T10:07:09.862Z,23.00
2019-05-12T10:08:06.575Z,22.94
2019-05-12T10:09:08.882Z,22.94
2019-05-12T10:10:03.691Z,22.87
2019-05-12T10:11:00.536Z,22.81
2019-05-12T10:12:00.554Z,22.81
2019-05-12T10:12:57.318Z,22.75
2019-05-12T10:13:54.350Z,22.69
2019-05-12T10:14:51.085Z,22.62
2019-05-12T10:15:47.802Z,22.62
2019-05-12T10:16:49.256Z,22.56
2019-05-12T10:17:43.495Z,22.56
2019-05-12T10:18:45.406Z,22.50
2019-05-12T10:19:38.695Z,22.50
2019-05-12T10:20:39.638Z,22.44
2019-05-12T10:21:35.646Z,22.37
2019-05-12T10:22:39.921Z,22.37
2019-05-12T10:23:34.748Z,22.31
2019-05-12T10:24:32.527Z,22.31
2019-05-12T10:25:30.717Z,22.25
2019-05-12T10:26:27.588Z,22.25
2019-05-12T10:27:27.231Z,22.19
2019-05-12T10:28:23.855Z,22.19
2019-05-12T10:29:21.107Z,22.13
2019-05-12T10:30:17.877Z,22.13
2019-05-12T10:31:14.583Z,22.06
2019-05-12T10:32:13.299Z,22.06
2019-05-12T10:33:09.866Z,22.00
2019-05-12T10:34:18.947Z,22.00
2019-05-12T10:35:20.797Z,21.94
2019-05-12T10:36:14.183Z,21.94
2019-05-12T10:37:13.206Z,21.87
2019-05-12T10:38:10.891Z,21.87
2019-05-12T10:39:07.758Z,21.81
2019-05-12T10:40:04.526Z,21.81
2019-05-12T10:41:01.238Z,21.75
2019-05-12T10:41:57.961Z,21.75
2019-05-12T10:42:54.703Z,21.69
2019-05-12T10:43:55.935Z,21.69
2019-05-12T10:44:49.937Z,21.69
2019-05-12T10:45:46.662Z,21.62
2019-05-12T10:46:44.555Z,21.62
2019-05-12T10:47:41.293Z,21.56
2019-05-12T10:48:38.010Z,21.56
2019-05-12T10:49:34.729Z,21.56
2019-05-12T10:50:33.805Z,21.50
2019-05-12T10:51:29.961Z,21.50
2019-05-12T10:52:29.540Z,21.44
2019-05-12T10:53:25.213Z,21.44
2019-05-12T10:54:23.949Z,21.44
2019-05-12T10:55:20.447Z,21.37
2019-05-12T10:56:17.163Z,21.37
2019-05-12T10:57:14.193Z,21.37
2019-05-12T10:58:11.023Z,21.31
2019-05-12T10:59:07.733Z,21.31
2019-05-12T11:00:05.449Z,21.31
2019-05-12T11:01:05.308Z,21.25
2019-05-12T11:02:00.699Z,21.25
2019-05-12T11:03:01.497Z,21.19
2019-05-12T11:03:55.943Z,21.19
2019-05-12T11:04:54.151Z,21.19
2019-05-12T11:05:54.636Z,21.12
2019-05-12T11:06:49.518Z,21.12
2019-05-12T11:07:46.262Z,21.12
2019-05-12T11:08:47.384Z,21.12
2019-05-12T11:09:43.432Z,21.06
2019-05-12T11:10:40.021Z,21.06
2019-05-12T11:11:42.475Z,21.06
2019-05-12T11:12:35.258Z,21.00
2019-05-12T11:13:33.800Z,21.00
2019-05-12T11:14:30.710Z,21.00
2019-05-12T11:15:27.426Z,20.94
2019-05-12T11:16:30.877Z,20.94
2019-05-12T11:17:24.519Z,20.94
2019-05-12T11:18:26.015Z,20.88
2019-05-12T11:19:20.391Z,20.88
2019-05-12T11:20:17.112Z,20.88
2019-05-12T11:21:13.836Z,20.88
2019-05-12T11:22:10.551Z,20.81
2019-05-12T11:23:07.286Z,20.81
2019-05-12T11:24:04.018Z,20.81
2019-05-12T11:25:00.735Z,20.81
2019-05-12T11:25:57.444Z,20.75
2019-05-12T11:26:54.159Z,20.75
2019-05-12T11:27:50.886Z,20.75
2019-05-12T11:28:47.619Z,20.75
2019-05-12T11:29:48.706Z,20.69
2019-05-12T11:30:43.700Z,20.69
2019-05-12T11:31:40.579Z,20.69
2019-05-12T11:32:38.050Z,20.62
2019-05-12T11:33:34.838Z,20.62
2019-05-12T11:34:33.176Z,20.62
2019-05-12T11:35:30.069Z,20.62
2019-05-12T11:36:26.795Z,20.56
2019-05-12T11:37:23.513Z,20.56
2019-05-12T11:38:20.254Z,20.56
2019-05-12T11:39:16.982Z,20.56
2019-05-12T11:40:13.699Z,20.50
2019-05-12T11:41:16.235Z,20.50
2019-05-12T11:42:08.933Z,20.50
2019-05-12T11:43:05.671Z,20.50
2019-05-12T11:44:03.959Z,20.44
2019-05-12T11:45:00.862Z,20.44
2019-05-12T11:45:57.522Z,20.44
2019-05-12T11:46:54.818Z,20.44
2019-05-12T11:47:56.887Z,20.44
2019-05-12T11:48:50.533Z,20.37
2019-05-12T11:49:47.330Z,20.37
2019-05-12T11:50:47.790Z,20.37
2019-05-12T11:51:42.582Z,20.37
2019-05-12T11:52:39.285Z,20.37
2019-05-12T11:53:36.062Z,20.31
2019-05-12T11:54:33.554Z,20.31
2019-05-12T11:55:31.843Z,20.31
2019-05-12T11:56:28.858Z,20.31
2019-05-12T11:57:30.147Z,20.31
2019-05-12T11:58:24.099Z,20.31
2019-05-12T11:59:20.856Z,20.25
2019-05-12T12:00:19.938Z,20.25
2019-05-12T12:01:18.056Z,20.25
2019-05-12T12:02:14.765Z,20.25
2019-05-12T12:03:15.274Z,20.25
2019-05-12T12:04:09.985Z,20.25
2019-05-12T12:05:06.705Z,20.25
2019-05-12T12:06:03.430Z,20.25
2019-05-12T12:07:00.146Z,20.25
2019-05-12T12:07:56.857Z,20.31
2019-05-12T12:08:53.834Z,20.31
2019-05-12T12:09:56.250Z,20.31
2019-05-12T12:10:49.453Z,20.37
2019-05-12T12:11:46.190Z,20.37
2019-05-12T12:12:47.156Z,21.37
2019-05-12T12:13:41.485Z,23.19
2019-05-12T12:14:40.167Z,24.31
2019-05-12T12:15:36.742Z,24.87
2019-05-12T12:16:34.107Z,24.94
2019-05-12T12:17:32.677Z,25.06
2019-05-12T12:18:29.515Z,26.25
2019-05-12T12:19:35.007Z,27.75
2019-05-12T12:20:24.834Z,29.00
2019-05-12T12:21:23.709Z,29.81
2019-05-12T12:22:25.401Z,30.25
2019-05-12T12:23:18.611Z,30.44
2019-05-12T12:24:15.338Z,30.50
2019-05-12T12:25:13.601Z,30.50
2019-05-12T12:26:14.994Z,30.88
2019-05-12T12:27:11.697Z,31.44
2019-05-12T12:28:08.479Z,31.87
2019-05-12T12:29:05.203Z,32.19
2019-05-12T12:30:15.280Z,32.44
2019-05-12T12:31:03.019Z,32.50
2019-05-12T12:31:59.043Z,32.44
2019-05-12T12:33:00.159Z,32.25
2019-05-12T12:33:54.306Z,32.13
2019-05-12T12:34:51.065Z,32.00
2019-05-12T12:35:50.584Z,31.81
2019-05-12T12:36:46.326Z,31.62
2019-05-12T12:37:44.826Z,31.37
2019-05-12T12:38:43.909Z,31.00
2019-05-12T12:39:40.098Z,30.56
2019-05-12T12:40:36.844Z,30.12
2019-05-12T12:41:34.137Z,29.69
2019-05-12T12:42:36.952Z,29.25
2019-05-12T12:43:29.484Z,28.87
2019-05-12T12:44:26.210Z,28.44
2019-05-12T12:45:36.879Z,28.06
2019-05-12T12:46:33.823Z,27.69
2019-05-12T12:47:35.250Z,27.75
2019-05-12T12:48:29.882Z,28.50
2019-05-12T12:49:29.352Z,29.87
2019-05-12T12:50:28.652Z,31.31
2019-05-12T12:51:23.837Z,32.63
2019-05-12T12:52:20.605Z,33.38
2019-05-12T12:53:17.331Z,33.56
2019-05-12T12:54:14.064Z,33.38
2019-05-12T12:55:10.826Z,33.06
2019-05-12T12:56:07.574Z,32.75
2019-05-12T12:57:06.549Z,32.38
2019-05-12T12:58:03.320Z,32.00
2019-05-12T12:59:03.151Z,31.62
2019-05-12T12:59:58.778Z,31.19
2019-05-12T13:00:57.057Z,30.75
2019-05-12T13:01:53.969Z,30.31
2019-05-12T13:02:50.663Z,29.87
2019-05-12T13:03:47.383Z,29.44
2019-05-12T13:04:45.901Z,29.00
2019-05-12T13:05:43.869Z,28.62
2019-05-12T13:06:40.709Z,28.25
2019-05-12T13:07:37.438Z,28.00
2019-05-12T13:08:34.392Z,27.69
2019-05-12T13:09:33.306Z,27.50
2019-05-12T13:10:29.724Z,27.25
2019-05-12T13:11:33.259Z,27.00
2019-05-12T13:12:24.999Z,26.81
2019-05-12T13:13:21.737Z,26.56
2019-05-12T13:14:18.463Z,26.37
2019-05-12T13:15:15.189Z,26.25
2019-05-12T13:16:13.243Z,26.12
2019-05-12T13:17:10.059Z,26.00
2019-05-12T13:18:09.051Z,25.88
2019-05-12T13:19:12.387Z,25.81
2019-05-12T13:20:03.849Z,25.69
2019-05-12T13:21:00.560Z,25.62
2019-05-12T13:21:57.303Z,25.56
2019-05-12T13:22:54.019Z,25.50
2019-05-12T13:23:51.236Z,25.37
2019-05-12T13:24:47.959Z,25.31
2019-05-12T13:25:50.780Z,25.25
2019-05-12T13:26:43.627Z,25.19
2019-05-12T13:27:40.426Z,25.12
2019-05-12T13:28:37.186Z,25.06
2019-05-12T13:29:35.458Z,25.00
2019-05-12T13:30:45.534Z,24.94
2019-05-12T13:31:33.157Z,24.87
2019-05-12T13:32:32.069Z,24.81
2019-05-12T13:33:28.005Z,24.69
2019-05-12T13:34:28.721Z,24.63
2019-05-12T13:35:23.779Z,24.63
2019-05-12T13:36:20.659Z,24.56
2019-05-12T13:37:19.479Z,24.50
2019-05-12T13:38:15.905Z,24.44
2019-05-12T13:39:16.319Z,24.37
2019-05-12T13:40:11.166Z,24.31
2019-05-12T13:41:09.786Z,24.25
2019-05-12T13:42:06.437Z,24.19
2019-05-12T13:43:03.873Z,24.19
2019-05-12T13:44:00.809Z,24.12
2019-05-12T13:44:57.538Z,24.06
2019-05-12T13:45:54.258Z,24.00
2019-05-12T13:46:54.791Z,23.94
2019-05-12T13:47:49.559Z,23.87
2019-05-12T13:48:49.799Z,23.87
2019-05-12T13:49:47.498Z,23.81
2019-05-12T13:50:43.449Z,23.75
2019-05-12T13:51:42.983Z,23.69
2019-05-12T13:52:38.690Z,23.69
2019-05-12T13:53:40.211Z,23.62
2019-05-12T13:54:34.135Z,23.56
2019-05-12T13:55:30.835Z,23.50
2019-05-12T13:56:32.796Z,23.50
2019-05-12T13:57:26.068Z,23.44
2019-05-12T13:58:22.781Z,23.56
2019-05-12T13:59:21.182Z,23.94
2019-05-12T14:00:18.033Z,24.06
2019-05-12T14:01:19.926Z,23.94
2019-05-12T14:02:21.587Z,24.19
2019-05-12T14:03:13.803Z,25.31
2019-05-12T14:04:10.369Z,27.06
2019-05-12T14:05:11.276Z,28.94
2019-05-12T14:06:05.621Z,30.69
2019-05-12T14:07:03.879Z,32.06
2019-05-12T14:08:00.786Z,32.94
2019-05-12T14:08:57.512Z,33.25
2019-05-12T14:09:54.241Z,33.19
2019-05-12T14:10:59.192Z,32.88
2019-05-12T14:11:49.511Z,32.38
2019-05-12T14:12:46.225Z,31.81
2019-05-12T14:13:42.945Z,31.19
2019-05-12T14:14:39.660Z,30.50
2019-05-12T14:15:36.374Z,29.75
2019-05-12T14:16:33.917Z,29.00
2019-05-12T14:17:31.165Z,28.31
2019-05-12T14:18:29.289Z,27.81
2019-05-12T14:19:30.386Z,28.00
2019-05-12T14:20:24.550Z,29.06
2019-05-12T14:21:21.294Z,30.56
2019-05-12T14:22:26.036Z,32.06
2019-05-12T14:23:16.604Z,33.13
2019-05-12T14:24:13.920Z,33.56
2019-05-12T14:25:10.897Z,33.63
2019-05-12T14:26:09.299Z,33.38
2019-05-12T14:27:06.186Z,33.00
2019-05-12T14:28:05.375Z,32.56
2019-05-12T14:29:03.805Z,32.19
2019-05-12T14:30:00.789Z,31.81
2019-05-12T14:30:58.529Z,31.44
2019-05-12T14:32:01.891Z,31.06
2019-05-12T14:32:57.122Z,30.62
2019-05-12T14:33:53.894Z,30.19
2019-05-12T14:34:51.034Z,29.75
2019-05-12T14:35:49.332Z,29.31
2019-05-12T14:36:46.054Z,28.81
2019-05-12T14:37:45.930Z,28.38
2019-05-12T14:38:41.380Z,28.06
2019-05-12T14:39:40.146Z,28.25
2019-05-12T14:40:36.634Z,29.00
2019-05-12T14:41:34.166Z,30.06
2019-05-12T14:42:34.944Z,31.19
2019-05-12T14:43:29.568Z,32.25
2019-05-12T14:44:26.277Z,32.88
2019-05-12T14:45:25.669Z,33.00
2019-05-12T14:46:21.531Z,32.88
2019-05-12T14:47:19.232Z,32.56
2019-05-12T14:48:16.828Z,32.25
2019-05-12T14:49:14.177Z,32.00
2019-05-12T14:50:11.099Z,31.75
2019-05-12T14:51:07.834Z,31.44
2019-05-12T14:52:04.582Z,31.12
2019-05-12T14:53:03.415Z,30.81
2019-05-12T14:53:59.885Z,30.44
2019-05-12T14:54:56.659Z,30.06
2019-05-12T14:55:53.682Z,29.69
2019-05-12T14:56:55.784Z,29.31
2019-05-12T14:57:48.986Z,28.94
2019-05-12T14:58:50.191Z,28.56
2019-05-12T14:59:44.269Z,28.25
2019-05-12T15:00:41.016Z,28.06
2019-05-12T15:01:52.131Z,28.31
2019-05-12T15:02:36.410Z,29.12
2019-05-12T15:03:34.267Z,30.06
2019-05-12T15:04:31.188Z,31.12
2019-05-12T15:05:27.931Z,32.19
2019-05-12T15:06:29.275Z,32.75
2019-05-12T15:07:23.635Z,32.94
2019-05-12T15:08:21.488Z,32.75
2019-05-12T15:09:21.797Z,32.50
2019-05-12T15:10:17.614Z,32.19
2019-05-12T15:11:14.378Z,31.94
2019-05-12T15:12:11.099Z,31.69
2019-05-12T15:13:07.860Z,31.44
2019-05-12T15:14:04.593Z,31.19
2019-05-12T15:15:03.518Z,30.88
2019-05-12T15:16:00.218Z,30.56
2019-05-12T15:16:57.040Z,30.25
2019-05-12T15:17:55.033Z,29.87
2019-05-12T15:18:54.103Z,29.56
2019-05-12T15:19:50.838Z,29.25
2019-05-12T15:20:49.901Z,28.94
2019-05-12T15:21:46.119Z,28.62
2019-05-12T15:22:51.399Z,28.31
2019-05-12T15:23:44.016Z,28.12
2019-05-12T15:24:39.936Z,28.25
2019-05-12T15:25:37.254Z,28.69
2019-05-12T15:26:34.123Z,29.44
2019-05-12T15:27:44.093Z,30.31
2019-05-12T15:28:29.452Z,31.19
2019-05-12T15:29:26.170Z,31.81
2019-05-12T15:30:26.192Z,32.19
2019-05-12T15:31:23.364Z,32.31
2019-05-12T15:32:20.073Z,32.19
2019-05-12T15:33:16.808Z,31.94
2019-05-12T15:34:14.302Z,31.62
2019-05-12T15:35:13.257Z,31.19
2019-05-12T15:36:09.707Z,30.75
2019-05-12T15:37:06.435Z,30.31
2019-05-12T15:38:03.890Z,29.87
2019-05-12T15:39:00.730Z,29.44
2019-05-12T15:39:57.462Z,29.06
2019-05-12T15:40:54.197Z,28.75
2019-05-12T15:41:55.949Z,28.44
2019-05-12T15:42:49.481Z,28.19
2019-05-12T15:43:48.854Z,27.94
2019-05-12T15:44:47.242Z,27.75
2019-05-12T15:45:43.772Z,27.56
2019-05-12T15:46:43.459Z,27.37
2019-05-12T15:47:39.070Z,27.25
2019-05-12T15:48:35.840Z,27.13
2019-05-12T15:49:33.618Z,27.00
2019-05-12T15:50:30.517Z,26.87
2019-05-12T15:51:27.243Z,26.81
2019-05-12T15:52:24.651Z,26.75
2019-05-12T15:53:22.728Z,26.62
2019-05-12T15:54:20.156Z,26.56
2019-05-12T15:55:18.265Z,26.50
2019-05-12T15:56:22.712Z,26.37
2019-05-12T15:57:14.014Z,26.31
2019-05-12T15:58:14.211Z,26.25
2019-05-12T15:59:11.082Z,26.19
2019-05-12T16:00:07.811Z,26.06
2019-05-12T16:01:04.620Z,26.00
2019-05-12T16:02:11.801Z,25.94
2019-05-12T16:02:59.905Z,25.88
2019-05-12T16:03:56.667Z,25.81
2019-05-12T16:04:54.975Z,25.75
2019-05-12T16:05:53.434Z,25.69
2019-05-12T16:06:55.430Z,25.62
2019-05-12T16:07:48.806Z,25.56
2019-05-12T16:08:45.563Z,25.50
2019-05-12T16:09:45.349Z,25.44
2019-05-12T16:10:40.842Z,25.37
2019-05-12T16:11:37.582Z,25.31
2019-05-12T16:12:34.419Z,25.25
2019-05-12T16:13:33.645Z,25.19
2019-05-12T16:14:30.633Z,25.12
2019-05-12T16:15:28.254Z,25.06
2019-05-12T16:16:25.007Z,25.00
2019-05-12T16:17:24.990Z,24.94
2019-05-12T16:18:20.255Z,24.87
2019-05-12T16:19:17.018Z,24.87
2019-05-12T16:20:14.295Z,24.81
2019-05-12T16:21:11.282Z,24.75
2019-05-12T16:22:08.016Z,24.69
2019-05-12T16:23:04.735Z,24.63
2019-05-12T16:24:03.054Z,24.56
2019-05-12T16:25:00.048Z,24.56
2019-05-12T16:26:01.475Z,24.50
2019-05-12T16:26:55.326Z,24.44
2019-05-12T16:27:52.107Z,24.37
2019-05-12T16:28:54.011Z,24.31
2019-05-12T16:29:49.908Z,24.31
2019-05-12T16:30:47.370Z,24.25
2019-05-12T16:31:45.592Z,24.19
2019-05-12T16:32:47.431Z,24.19
2019-05-12T16:33:43.510Z,24.12
2019-05-12T16:34:44.836Z,24.06
2019-05-12T16:35:38.495Z,24.00
2019-05-12T16:36:35.238Z,24.00
2019-05-12T16:37:35.163Z,23.94
2019-05-12T16:38:30.534Z,23.87
2019-05-12T16:39:30.296Z,23.87
2019-05-12T16:40:25.848Z,23.81
2019-05-12T16:41:27.999Z,23.75
2019-05-12T16:42:23.480Z,23.75
2019-05-12T16:43:19.717Z,23.69
2019-05-12T16:44:22.850Z,23.62
2019-05-12T16:45:19.864Z,23.62
2019-05-12T16:46:15.599Z,23.56
2019-05-12T16:47:13.483Z,23.56
2019-05-12T16:48:26.657Z,23.50
2019-05-12T16:49:09.487Z,23.44
2019-05-12T16:50:14.731Z,23.44
2019-05-12T16:51:04.852Z,23.38
2019-05-12T16:52:03.524Z,23.38
2019-05-12T16:53:00.117Z,23.31
2019-05-12T16:53:56.846Z,23.25
2019-05-12T16:54:54.167Z,23.25
2019-05-12T16:55:53.142Z,23.19
2019-05-12T16:56:49.491Z,23.19
2019-05-12T16:57:52.827Z,23.12
2019-05-12T16:58:44.754Z,23.06
2019-05-12T16:59:41.568Z,23.06
2019-05-12T17:00:39.658Z,23.00
2019-05-12T17:01:36.858Z,23.00
2019-05-12T17:02:41.401Z,22.94
2019-05-12T17:03:34.115Z,22.94
2019-05-12T17:04:33.228Z,22.87
2019-05-12T17:05:29.260Z,22.87
2019-05-12T17:06:28.564Z,22.81
2019-05-12T17:07:27.025Z,22.81
2019-05-12T17:08:24.090Z,22.75
2019-05-12T17:09:20.959Z,22.75
2019-05-12T17:10:17.683Z,22.69
2019-05-12T17:11:26.902Z,22.69
2019-05-12T17:12:14.738Z,22.62
2019-05-12T17:13:13.349Z,22.62
2019-05-12T17:14:10.021Z,22.56
2019-05-12T17:15:06.778Z,22.56
2019-05-12T17:16:04.273Z,22.50
2019-05-12T17:17:03.619Z,22.50
2019-05-12T17:18:01.695Z,22.50
2019-05-12T17:19:00.033Z,22.44
2019-05-12T17:19:56.906Z,22.44
2019-05-12T17:20:54.554Z,22.37
2019-05-12T17:21:57.647Z,22.37
2019-05-12T17:22:54.429Z,22.31
2019-05-12T17:23:48.559Z,22.31
2019-05-12T17:24:45.314Z,22.31
2019-05-12T17:25:42.058Z,22.25
2019-05-12T17:26:38.783Z,22.25
2019-05-12T17:27:35.514Z,22.19
2019-05-12T17:28:34.145Z,22.19
2019-05-12T17:29:30.814Z,22.19
2019-05-12T17:30:27.542Z,22.13
2019-05-12T17:31:24.282Z,22.13
2019-05-12T17:32:21.012Z,22.13
2019-05-12T17:33:22.586Z,22.06
2019-05-12T17:34:19.074Z,22.06
2019-05-12T17:35:20.240Z,22.00
2019-05-12T17:36:17.739Z,22.00
2019-05-12T17:37:14.535Z,22.00
2019-05-12T17:38:19.602Z,21.94
2019-05-12T17:39:10.011Z,21.94
2019-05-12T17:40:09.195Z,21.94
2019-05-12T17:41:05.338Z,21.87
2019-05-12T17:42:02.069Z,21.87
2019-05-12T17:43:09.150Z,21.87
2019-05-12T17:44:01.352Z,21.81
2019-05-12T17:44:55.886Z,21.81
2019-05-12T17:45:59.516Z,21.81
2019-05-12T17:46:51.169Z,21.75
2019-05-12T17:47:47.894Z,21.75
2019-05-12T17:48:44.959Z,21.75
2019-05-12T17:49:43.621Z,21.69
2019-05-12T17:50:45.434Z,21.69
2019-05-12T17:51:38.870Z,21.69
2019-05-12T17:52:35.618Z,21.69
2019-05-12T17:53:36.220Z,21.62
2019-05-12T17:54:30.901Z,21.62
2019-05-12T17:55:27.648Z,21.62
2019-05-12T17:56:32.803Z,21.56
2019-05-12T17:57:23.471Z,21.56
2019-05-12T17:58:20.366Z,21.56
2019-05-12T17:59:23.555Z,21.50
2019-05-12T18:00:15.674Z,21.50
2019-05-12T18:01:14.268Z,21.50
2019-05-12T18:02:14.836Z,21.50
2019-05-12T18:03:18.469Z,21.44
2019-05-12T18:04:08.074Z,21.44
2019-05-12T18:05:10.158Z,21.44
2019-05-12T18:06:04.047Z,21.37
2019-05-12T18:07:04.385Z,21.37
2019-05-12T18:07:59.546Z,21.37
2019-05-12T18:08:56.272Z,21.37
2019-05-12T18:09:56.703Z,21.31
2019-05-12T18:10:51.559Z,21.31
2019-05-12T18:11:54.686Z,21.31
2019-05-12T18:12:46.825Z,21.31
2019-05-12T18:13:43.541Z,21.25
2019-05-12T18:14:46.823Z,21.25
2019-05-12T18:15:38.921Z,21.25
2019-05-12T18:16:35.678Z,21.25
2019-05-12T18:17:33.851Z,21.19
2019-05-12T18:18:32.754Z,21.19
2019-05-12T18:19:29.189Z,21.19
2019-05-12T18:20:25.967Z,21.19
2019-05-12T18:21:30.207Z,21.19
2019-05-12T18:22:23.430Z,21.12
2019-05-12T18:23:25.430Z,21.12
2019-05-12T18:24:18.517Z,21.12
2019-05-12T18:25:15.242Z,21.12
2019-05-12T18:26:15.971Z,21.06
2019-05-12T18:27:10.554Z,21.06
2019-05-12T18:28:07.314Z,21.06
2019-05-12T18:29:04.341Z,21.06
2019-05-12T18:30:01.208Z,21.00
2019-05-12T18:30:57.946Z,21.00
2019-05-12T18:31:55.615Z,21.00
2019-05-12T18:32:54.933Z,21.00
2019-05-12T18:33:54.466Z,20.94
2019-05-12T18:34:49.656Z,20.94
2019-05-12T18:35:46.426Z,20.94
2019-05-12T18:36:43.172Z,20.94
2019-05-12T18:37:39.998Z,20.94
2019-05-12T18:38:36.756Z,20.88
2019-05-12T18:39:34.404Z,20.88
2019-05-12T18:40:31.229Z,20.88
2019-05-12T18:41:28.015Z,20.88
2019-05-12T18:42:24.797Z,20.88
2019-05-12T18:43:21.516Z,20.81
2019-05-12T18:44:28.795Z,20.81
2019-05-12T18:45:18.138Z,20.81
2019-05-12T18:46:15.150Z,20.81
2019-05-12T18:47:14.471Z,20.81
2019-05-12T18:48:19.890Z,20.81
2019-05-12T18:49:12.348Z,20.75
2019-05-12T18:50:07.553Z,20.75
2019-05-12T18:51:11.876Z,20.75
2019-05-12T18:52:03.894Z,20.75
2019-05-12T18:53:00.846Z,20.75
2019-05-12T18:53:58.022Z,20.69
2019-05-12T18:54:57.148Z,20.69
2019-05-12T18:55:53.971Z,20.69
2019-05-12T18:56:52.463Z,20.69
2019-05-12T18:57:50.095Z,20.69
2019-05-12T18:58:47.003Z,20.69
2019-05-12T18:59:46.144Z,20.62
2019-05-12T19:00:43.645Z,20.62
2019-05-12T19:01:40.563Z,20.62
2019-05-12T19:02:37.327Z,20.62
2019-05-12T19:03:46.806Z,20.62
2019-05-12T19:04:33.948Z,20.62
2019-05-12T19:05:31.189Z,20.56
2019-05-12T19:06:27.907Z,20.56
2019-05-12T19:07:38.642Z,20.56
2019-05-12T19:08:23.627Z,20.56
2019-05-12T19:09:20.467Z,20.56
2019-05-12T19:10:17.214Z,20.56
2019-05-12T19:11:22.442Z,20.50
2019-05-12T19:12:17.927Z,20.50
2019-05-12T19:13:12.410Z,20.50
2019-05-12T19:14:09.162Z,20.50
2019-05-12T19:15:10.163Z,20.50
2019-05-12T19:16:07.192Z,20.50
2019-05-12T19:17:03.692Z,20.44
2019-05-12T19:18:00.524Z,20.44
2019-05-12T19:18:57.279Z,20.44
2019-05-12T19:19:59.608Z,20.44
2019-05-12T19:20:54.155Z,20.44
2019-05-12T19:21:58.540Z,20.44
2019-05-12T19:22:57.421Z,20.37
2019-05-12T19:23:48.183Z,20.37
2019-05-12T19:24:44.941Z,20.37
2019-05-12T19:25:43.669Z,20.37
2019-05-12T19:26:40.481Z,20.37
2019-05-12T19:27:37.269Z,20.37
2019-05-12T19:28:34.305Z,20.31
2019-05-12T19:29:38.651Z,20.31
2019-05-12T19:30:29.625Z,20.31
2019-05-12T19:31:26.370Z,20.31
2019-05-12T19:32:27.901Z,20.31
2019-05-12T19:33:21.698Z,20.31
2019-05-12T19:34:22.800Z,20.31
2019-05-12T19:35:20.327Z,20.31
2019-05-12T19:36:15.545Z,20.25
2019-05-12T19:37:14.255Z,20.25
2019-05-12T19:38:15.086Z,20.25
2019-05-12T19:39:09.762Z,20.25
2019-05-12T19:40:11.980Z,20.25
2019-05-12T19:41:05.054Z,20.25
2019-05-12T19:42:03.770Z,20.19
2019-05-12T19:43:03.500Z,20.19
2019-05-12T19:43:59.006Z,20.19
2019-05-12T19:44:59.687Z,20.19
2019-05-12T19:46:03.119Z,20.19
2019-05-12T19:46:53.919Z,20.19
2019-05-12T19:47:50.804Z,20.19
2019-05-12T19:48:49.633Z,20.19
2019-05-12T19:49:50.379Z,20.19
2019-05-12T19:50:51.954Z,20.12
2019-05-12T19:51:43.791Z,20.12
2019-05-12T19:52:40.726Z,20.12
2019-05-12T19:53:37.472Z,20.12
2019-05-12T19:54:36.892Z,20.12
2019-05-12T19:55:33.771Z,20.12
2019-05-12T19:56:35.754Z,20.12
2019-05-12T19:57:29.171Z,20.12
2019-05-12T19:58:25.906Z,20.12
2019-05-12T19:59:23.678Z,20.12
2019-05-12T20:00:20.519Z,20.06
2019-05-12T20:01:17.258Z,20.06
2019-05-12T20:02:14.402Z,20.06
2019-05-12T20:03:13.681Z,20.06
2019-05-12T20:04:09.806Z,20.06
2019-05-12T20:05:06.570Z,20.06
2019-05-12T20:06:03.306Z,20.06
2019-05-12T20:07:00.059Z,20.06
2019-05-12T20:07:56.789Z,20.00
2019-05-12T20:09:05.638Z,20.00
2019-05-12T20:09:55.933Z,20.00
2019-05-12T20:10:50.690Z,20.00
2019-05-12T20:11:47.449Z,20.00
2019-05-12T20:12:48.795Z,20.00
2019-05-12T20:13:44.495Z,20.00
2019-05-12T20:14:43.355Z,20.00
2019-05-12T20:15:43.180Z,19.94
2019-05-12T20:16:38.406Z,19.94
2019-05-12T20:17:35.149Z,19.94
2019-05-12T20:18:36.180Z,19.94
2019-05-12T20:19:30.459Z,19.94
2019-05-12T20:20:36.776Z,19.94
2019-05-12T20:21:27.952Z,19.94
2019-05-12T20:22:24.444Z,19.94
2019-05-12T20:23:21.237Z,19.94
2019-05-12T20:24:17.958Z,19.94
2019-05-12T20:25:14.856Z,19.87
2019-05-12T20:26:11.570Z,19.87
2019-05-12T20:27:10.698Z,19.87
2019-05-12T20:28:11.400Z,19.87
2019-05-12T20:29:05.442Z,19.87
2019-05-12T20:30:08.867Z,19.87
2019-05-12T20:31:02.723Z,19.87
2019-05-12T20:31:59.275Z,19.87
2019-05-12T20:32:56.018Z,19.87
2019-05-12T20:33:57.309Z,19.87
2019-05-12T20:34:54.961Z,19.87
2019-05-12T20:35:49.870Z,19.87
2019-05-12T20:36:46.614Z,19.81
2019-05-12T20:37:52.394Z,19.81
2019-05-12T20:38:44.176Z,19.81
2019-05-12T20:39:40.482Z,19.81
2019-05-12T20:40:39.715Z,19.81
2019-05-12T20:41:35.790Z,19.81
2019-05-12T20:42:33.964Z,19.81